sensor_id;sensor_type;location;lat;lon;timestamp;P1;durP1;ratioP1;P2;durP2;ratioP2
49582;SDS011;36329;48.816;44.624;2022-08-03T00:00:44;8.7;;;5.3;;
49582;SDS011;36329;48.816;44.624;2022-08-03T00:03:46;9.2;;;5.6;;
49582;SDS011;36329;48.816;44.624;2022-08-03T00:06:48;10.1;;;5.4;;
49582;SDS011;36329;48.816;44.624;2022-08-03T00:09:49;8.5;;;5.2;;
49582;SDS011;36329;48.816;44.624;2022-08-03T00:12:51;10.3;;;5.4;;
49582;SDS011;36329;48.816;44.624;2022-08-03T00:15:52;8.5;;;5;;
49582;SDS011;36329;48.816;44.624;2022-08-03T00:18:54;9.6;;;4.8;;
49582;SDS011;36329;48.816;44.624;2022-08-03T00:21:56;7.8;;;5;;
49582;SDS011;36329;48.816;44.624;2022-08-03T00:24:57;8.9;;;4.9;;
49582;SDS011;36329;48.816;44.624;2022-08-03T00:28:00;6.6;;;4.8;;
49582;SDS011;36329;48.816;44.624;2022-08-03T00:31:02;8.7;;;5;;
49582;SDS011;36329;48.816;44.624;2022-08-03T00:34:03;8.7;;;5;;
49582;SDS011;36329;48.816;44.624;2022-08-03T00:37:10;8;;;5.1;;
49582;SDS011;36329;48.816;44.624;2022-08-03T00:40:14;15.6;;;5;;
49582;SDS011;36329;48.816;44.624;2022-08-03T00:43:16;9.1;;;4.7;;
49582;SDS011;36329;48.816;44.624;2022-08-03T00:46:23;12;;;5.1;;
49582;SDS011;36329;48.816;44.624;2022-08-03T00:49:25;8.1;;;5;;
49582;SDS011;36329;48.816;44.624;2022-08-03T00:52:26;11.2;;;5.1;;
49582;SDS011;36329;48.816;44.624;2022-08-03T00:55:28;15;;;5.2;;
49582;SDS011;36329;48.816;44.624;2022-08-03T00:58:30;8.6;;;4.9;;
49582;SDS011;36329;48.816;44.624;2022-08-03T01:01:32;10.5;;;5;;
49582;SDS011;36329;48.816;44.624;2022-08-03T01:04:33;7.5;;;4.8;;
49582;SDS011;36329;48.816;44.624;2022-08-03T01:07:38;7.5;;;5.1;;
49582;SDS011;36329;48.816;44.624;2022-08-03T01:10:46;9.8;;;4.9;;
49582;SDS011;36329;48.816;44.624;2022-08-03T01:14:02;7;;;5.2;;
49582;SDS011;36329;48.816;44.624;2022-08-03T01:17:08;7.4;;;4.7;;
49582;SDS011;36329;48.816;44.624;2022-08-03T01:20:14;9;;;5;;
49582;SDS011;36329;48.816;44.624;2022-08-03T01:23:23;8.8;;;4.7;;
49582;SDS011;36329;48.816;44.624;2022-08-03T01:30:02;8.9;;;5;;
49582;SDS011;36329;48.816;44.624;2022-08-03T01:33:11;9.3;;;5.2;;
49582;SDS011;36329;48.816;44.624;2022-08-03T01:36:17;10.5;;;4.7;;
49582;SDS011;36329;48.816;44.624;2022-08-03T01:39:23;8.3;;;4.8;;
49582;SDS011;36329;48.816;44.624;2022-08-03T01:42:27;9.1;;;5.4;;
49582;SDS011;36329;48.816;44.624;2022-08-03T01:45:30;6.9;;;4.8;;
49582;SDS011;36329;48.816;44.624;2022-08-03T01:48:34;7.8;;;4.7;;
49582;SDS011;36329;48.816;44.624;2022-08-03T01:51:38;8.4;;;4.7;;
49582;SDS011;36329;48.816;44.624;2022-08-03T01:54:43;7;;;4.7;;
49582;SDS011;36329;48.816;44.624;2022-08-03T01:57:47;10.4;;;5.4;;
49582;SDS011;36329;48.816;44.624;2022-08-03T02:00:50;8.5;;;4.8;;
49582;SDS011;36329;48.816;44.624;2022-08-03T02:03:53;12;;;5.1;;
49582;SDS011;36329;48.816;44.624;2022-08-03T02:06:56;7.5;;;4.6;;
49582;SDS011;36329;48.816;44.624;2022-08-03T02:10:00;6.4;;;4.9;;
49582;SDS011;36329;48.816;44.624;2022-08-03T02:13:10;8.5;;;4.7;;
49582;SDS011;36329;48.816;44.624;2022-08-03T02:16:13;7.2;;;5.1;;
49582;SDS011;36329;48.816;44.624;2022-08-03T02:19:23;10.3;;;4.9;;
49582;SDS011;36329;48.816;44.624;2022-08-03T02:22:32;7.4;;;4.8;;
49582;SDS011;36329;48.816;44.624;2022-08-03T02:25:37;8.7;;;5;;
49582;SDS011;36329;48.816;44.624;2022-08-03T02:28:50;9.9;;;5.3;;
49582;SDS011;36329;48.816;44.624;2022-08-03T02:31:59;7;;;5;;
49582;SDS011;36329;48.816;44.624;2022-08-03T02:35:04;10.5;;;4.9;;
49582;SDS011;36329;48.816;44.624;2022-08-03T02:38:10;7.2;;;4.8;;
49582;SDS011;36329;48.816;44.624;2022-08-03T02:41:15;8.2;;;4.9;;
49582;SDS011;36329;48.816;44.624;2022-08-03T02:44:22;8.8;;;4.8;;
49582;SDS011;36329;48.816;44.624;2022-08-03T02:47:31;9;;;4.9;;
49582;SDS011;36329;48.816;44.624;2022-08-03T02:50:38;9.6;;;4.8;;
49582;SDS011;36329;48.816;44.624;2022-08-03T02:53:42;9.2;;;5.1;;
49582;SDS011;36329;48.816;44.624;2022-08-03T02:56:45;9.2;;;4.7;;
49582;SDS011;36329;48.816;44.624;2022-08-03T02:59:48;6.9;;;4.7;;
49582;SDS011;36329;48.816;44.624;2022-08-03T03:02:51;6.9;;;4.8;;
49582;SDS011;36329;48.816;44.624;2022-08-03T03:05:55;9.1;;;4.9;;
49582;SDS011;36329;48.816;44.624;2022-08-03T03:08:57;7.7;;;4.8;;
49582;SDS011;36329;48.816;44.624;2022-08-03T03:11:59;7.1;;;4.7;;
49582;SDS011;36329;48.816;44.624;2022-08-03T03:15:04;10;;;4.6;;
49582;SDS011;36329;48.816;44.624;2022-08-03T03:18:06;6.9;;;4.5;;
49582;SDS011;36329;48.816;44.624;2022-08-03T03:21:09;9.7;;;4.9;;
49582;SDS011;36329;48.816;44.624;2022-08-03T03:24:11;8.8;;;4.8;;
49582;SDS011;36329;48.816;44.624;2022-08-03T03:27:13;8.6;;;4.9;;
49582;SDS011;36329;48.816;44.624;2022-08-03T03:30:15;9.2;;;5.2;;
49582;SDS011;36329;48.816;44.624;2022-08-03T03:33:17;10.7;;;4.8;;
49582;SDS011;36329;48.816;44.624;2022-08-03T03:36:18;7.4;;;4.7;;
49582;SDS011;36329;48.816;44.624;2022-08-03T03:39:27;8.1;;;4.7;;
49582;SDS011;36329;48.816;44.624;2022-08-03T03:42:29;7.6;;;4.7;;
49582;SDS011;36329;48.816;44.624;2022-08-03T03:45:33;9.7;;;5.2;;
49582;SDS011;36329;48.816;44.624;2022-08-03T03:48:35;8.6;;;4.8;;
49582;SDS011;36329;48.816;44.624;2022-08-03T03:51:36;9.9;;;5;;
49582;SDS011;36329;48.816;44.624;2022-08-03T03:54:38;7.7;;;4.9;;
49582;SDS011;36329;48.816;44.624;2022-08-03T03:57:45;10.7;;;5.2;;
49582;SDS011;36329;48.816;44.624;2022-08-03T04:00:47;10;;;5;;
49582;SDS011;36329;48.816;44.624;2022-08-03T04:03:49;11.1;;;5;;
49582;SDS011;36329;48.816;44.624;2022-08-03T04:06:51;14.5;;;5.3;;
49582;SDS011;36329;48.816;44.624;2022-08-03T04:09:52;7.8;;;4.8;;
49582;SDS011;36329;48.816;44.624;2022-08-03T04:12:55;11.9;;;5.1;;
49582;SDS011;36329;48.816;44.624;2022-08-03T04:15:59;13.2;;;5;;
49582;SDS011;36329;48.816;44.624;2022-08-03T04:19:08;11.6;;;5.1;;
49582;SDS011;36329;48.816;44.624;2022-08-03T04:22:13;11.2;;;5;;
49582;SDS011;36329;48.816;44.624;2022-08-03T04:25:20;11.2;;;4.9;;
49582;SDS011;36329;48.816;44.624;2022-08-03T04:28:25;10.7;;;6.8;;
49582;SDS011;36329;48.816;44.624;2022-08-03T04:31:28;14.4;;;7.3;;
49582;SDS011;36329;48.816;44.624;2022-08-03T04:34:30;13.3;;;6.4;;
49582;SDS011;36329;48.816;44.624;2022-08-03T04:37:34;11.4;;;6.4;;
49582;SDS011;36329;48.816;44.624;2022-08-03T04:40:44;17.5;;;7.9;;
49582;SDS011;36329;48.816;44.624;2022-08-03T04:43:48;20.2;;;7.7;;
49582;SDS011;36329;48.816;44.624;2022-08-03T04:46:52;14.5;;;5.9;;
49582;SDS011;36329;48.816;44.624;2022-08-03T04:49:54;11.8;;;5.7;;
49582;SDS011;36329;48.816;44.624;2022-08-03T04:52:56;10.8;;;5.9;;
49582;SDS011;36329;48.816;44.624;2022-08-03T04:56:02;10.4;;;6.1;;
49582;SDS011;36329;48.816;44.624;2022-08-03T04:59:10;12;;;6.2;;
49582;SDS011;36329;48.816;44.624;2022-08-03T05:02:12;15.2;;;6.5;;
49582;SDS011;36329;48.816;44.624;2022-08-03T05:05:14;17.9;;;6.7;;
49582;SDS011;36329;48.816;44.624;2022-08-03T05:08:16;15.1;;;6.3;;
49582;SDS011;36329;48.816;44.624;2022-08-03T05:11:17;14.2;;;6.5;;
49582;SDS011;36329;48.816;44.624;2022-08-03T05:14:19;18.3;;;6.9;;
49582;SDS011;36329;48.816;44.624;2022-08-03T05:17:21;16.5;;;7.1;;
49582;SDS011;36329;48.816;44.624;2022-08-03T05:20:28;14.7;;;7;;
49582;SDS011;36329;48.816;44.624;2022-08-03T05:23:29;13.4;;;6.7;;
49582;SDS011;36329;48.816;44.624;2022-08-03T05:26:31;13.4;;;6.6;;
49582;SDS011;36329;48.816;44.624;2022-08-03T05:29:32;17.1;;;6.9;;
49582;SDS011;36329;48.816;44.624;2022-08-03T05:32:34;13.6;;;7;;
49582;SDS011;36329;48.816;44.624;2022-08-03T05:35:35;16.4;;;7;;
49582;SDS011;36329;48.816;44.624;2022-08-03T05:38:37;17.7;;;7.9;;
49582;SDS011;36329;48.816;44.624;2022-08-03T05:41:39;14;;;6.8;;
49582;SDS011;36329;48.816;44.624;2022-08-03T05:44:41;14.2;;;7.5;;
49582;SDS011;36329;48.816;44.624;2022-08-03T05:47:42;16.3;;;7.6;;
49582;SDS011;36329;48.816;44.624;2022-08-03T05:50:44;14.9;;;7.5;;
49582;SDS011;36329;48.816;44.624;2022-08-03T05:53:46;16.9;;;7.4;;
49582;SDS011;36329;48.816;44.624;2022-08-03T05:56:47;13.8;;;7.7;;
49582;SDS011;36329;48.816;44.624;2022-08-03T05:59:49;15.5;;;7.4;;
49582;SDS011;36329;48.816;44.624;2022-08-03T06:02:50;19.9;;;7.6;;
49582;SDS011;36329;48.816;44.624;2022-08-03T06:05:52;16.3;;;7.6;;
49582;SDS011;36329;48.816;44.624;2022-08-03T06:08:54;16.7;;;8.2;;
49582;SDS011;36329;48.816;44.624;2022-08-03T06:11:56;15.2;;;7.6;;
49582;SDS011;36329;48.816;44.624;2022-08-03T06:14:58;16.6;;;7.6;;
49582;SDS011;36329;48.816;44.624;2022-08-03T06:18:00;13;;;6.7;;
49582;SDS011;36329;48.816;44.624;2022-08-03T06:21:09;12.3;;;6.8;;
49582;SDS011;36329;48.816;44.624;2022-08-03T06:24:11;17.8;;;6.6;;
49582;SDS011;36329;48.816;44.624;2022-08-03T06:27:12;11.7;;;6.1;;
49582;SDS011;36329;48.816;44.624;2022-08-03T06:30:14;10.6;;;5.9;;
49582;SDS011;36329;48.816;44.624;2022-08-03T06:33:16;11.3;;;6.2;;
49582;SDS011;36329;48.816;44.624;2022-08-03T06:36:18;14.2;;;6.1;;
49582;SDS011;36329;48.816;44.624;2022-08-03T06:39:19;11.2;;;6;;
49582;SDS011;36329;48.816;44.624;2022-08-03T06:42:22;11.5;;;6;;
49582;SDS011;36329;48.816;44.624;2022-08-03T06:45:23;11.6;;;6.3;;
49582;SDS011;36329;48.816;44.624;2022-08-03T06:48:31;11.4;;;7.5;;
49582;SDS011;36329;48.816;44.624;2022-08-03T06:51:32;15.7;;;7.2;;
49582;SDS011;36329;48.816;44.624;2022-08-03T06:54:34;18;;;9.3;;
49582;SDS011;36329;48.816;44.624;2022-08-03T06:57:36;13.5;;;7.3;;
49582;SDS011;36329;48.816;44.624;2022-08-03T07:00:48;18.4;;;7.3;;
49582;SDS011;36329;48.816;44.624;2022-08-03T07:03:51;15.1;;;7.3;;
49582;SDS011;36329;48.816;44.624;2022-08-03T07:06:58;11.8;;;7.6;;
49582;SDS011;36329;48.816;44.624;2022-08-03T07:09:59;13.4;;;7.2;;
49582;SDS011;36329;48.816;44.624;2022-08-03T07:13:07;13.3;;;7.6;;
49582;SDS011;36329;48.816;44.624;2022-08-03T07:16:08;15.9;;;7.5;;
49582;SDS011;36329;48.816;44.624;2022-08-03T07:19:10;15.5;;;8.2;;
49582;SDS011;36329;48.816;44.624;2022-08-03T07:22:11;15.3;;;8.1;;
49582;SDS011;36329;48.816;44.624;2022-08-03T07:25:18;15.2;;;9.5;;
49582;SDS011;36329;48.816;44.624;2022-08-03T07:28:26;18.2;;;9;;
49582;SDS011;36329;48.816;44.624;2022-08-03T07:31:32;19.7;;;9.7;;
49582;SDS011;36329;48.816;44.624;2022-08-03T07:34:35;16.4;;;9.5;;
49582;SDS011;36329;48.816;44.624;2022-08-03T07:37:36;14.8;;;8.8;;
49582;SDS011;36329;48.816;44.624;2022-08-03T07:40:38;17.4;;;9.5;;
49582;SDS011;36329;48.816;44.624;2022-08-03T07:43:40;16.2;;;9;;
49582;SDS011;36329;48.816;44.624;2022-08-03T07:46:42;12.3;;;7.1;;
49582;SDS011;36329;48.816;44.624;2022-08-03T07:49:43;14.3;;;7.8;;
49582;SDS011;36329;48.816;44.624;2022-08-03T07:52:45;12.3;;;8.1;;
49582;SDS011;36329;48.816;44.624;2022-08-03T07:55:46;13.2;;;7.3;;
49582;SDS011;36329;48.816;44.624;2022-08-03T07:58:48;12.6;;;7.5;;
49582;SDS011;36329;48.816;44.624;2022-08-03T08:01:49;10;;;6.7;;
49582;SDS011;36329;48.816;44.624;2022-08-03T08:04:56;10.2;;;6.6;;
49582;SDS011;36329;48.816;44.624;2022-08-03T08:07:58;12.8;;;7.2;;
49582;SDS011;36329;48.816;44.624;2022-08-03T08:11:00;12;;;7.6;;
49582;SDS011;36329;48.816;44.624;2022-08-03T08:14:02;12.3;;;7.3;;
49582;SDS011;36329;48.816;44.624;2022-08-03T08:17:03;11.7;;;7.7;;
49582;SDS011;36329;48.816;44.624;2022-08-03T08:20:05;13.6;;;7.4;;
49582;SDS011;36329;48.816;44.624;2022-08-03T08:23:07;14;;;7.8;;
49582;SDS011;36329;48.816;44.624;2022-08-03T08:26:09;17.4;;;9.2;;
49582;SDS011;36329;48.816;44.624;2022-08-03T08:29:11;18.9;;;10;;
49582;SDS011;36329;48.816;44.624;2022-08-03T08:32:12;17.9;;;9.3;;
49582;SDS011;36329;48.816;44.624;2022-08-03T08:35:14;15.9;;;9.5;;
49582;SDS011;36329;48.816;44.624;2022-08-03T08:38:17;15.5;;;9.5;;
49582;SDS011;36329;48.816;44.624;2022-08-03T08:41:24;15.3;;;9.3;;
49582;SDS011;36329;48.816;44.624;2022-08-03T08:44:26;11.6;;;8.4;;
49582;SDS011;36329;48.816;44.624;2022-08-03T08:47:29;18;;;9.3;;
49582;SDS011;36329;48.816;44.624;2022-08-03T08:50:32;15;;;9.2;;
49582;SDS011;36329;48.816;44.624;2022-08-03T08:53:35;18.5;;;9.3;;
49582;SDS011;36329;48.816;44.624;2022-08-03T08:56:43;14.9;;;9.1;;
49582;SDS011;36329;48.816;44.624;2022-08-03T08:59:45;15.7;;;8.6;;
49582;SDS011;36329;48.816;44.624;2022-08-03T09:02:47;14.3;;;7.7;;
49582;SDS011;36329;48.816;44.624;2022-08-03T09:05:54;13.8;;;8;;
49582;SDS011;36329;48.816;44.624;2022-08-03T09:08:56;13.3;;;8;;
49582;SDS011;36329;48.816;44.624;2022-08-03T09:11:58;14.7;;;8.3;;
49582;SDS011;36329;48.816;44.624;2022-08-03T09:18:27;12;;;7.4;;
49582;SDS011;36329;48.816;44.624;2022-08-03T09:21:29;10.8;;;6.5;;
49582;SDS011;36329;48.816;44.624;2022-08-03T09:24:31;10;;;6;;
49582;SDS011;36329;48.816;44.624;2022-08-03T09:27:40;10.2;;;6.2;;
49582;SDS011;36329;48.816;44.624;2022-08-03T09:30:43;9.3;;;6.2;;
49582;SDS011;36329;48.816;44.624;2022-08-03T09:33:59;11.8;;;6.5;;
49582;SDS011;36329;48.816;44.624;2022-08-03T09:37:02;8.8;;;6.4;;
49582;SDS011;36329;48.816;44.624;2022-08-03T09:43:42;9.7;;;6.2;;
49582;SDS011;36329;48.816;44.624;2022-08-03T09:46:47;11.4;;;6.2;;
49582;SDS011;36329;48.816;44.624;2022-08-03T09:49:55;9.8;;;6.1;;
49582;SDS011;36329;48.816;44.624;2022-08-03T09:53:00;8;;;5.7;;
49582;SDS011;36329;48.816;44.624;2022-08-03T09:56:02;9.8;;;5.8;;
49582;SDS011;36329;48.816;44.624;2022-08-03T09:59:04;10.6;;;6.1;;
49582;SDS011;36329;48.816;44.624;2022-08-03T10:02:05;11.2;;;6.2;;
49582;SDS011;36329;48.816;44.624;2022-08-03T10:05:30;11.5;;;6.3;;
49582;SDS011;36329;48.816;44.624;2022-08-03T10:08:33;9.7;;;6.3;;
49582;SDS011;36329;48.816;44.624;2022-08-03T10:11:40;9.6;;;6.2;;
49582;SDS011;36329;48.816;44.624;2022-08-03T10:14:47;12.5;;;7.6;;
49582;SDS011;36329;48.816;44.624;2022-08-03T10:17:55;9.7;;;6.9;;
49582;SDS011;36329;48.816;44.624;2022-08-03T10:20:58;11.7;;;6.8;;
49582;SDS011;36329;48.816;44.624;2022-08-03T10:24:05;11.3;;;6.7;;
49582;SDS011;36329;48.816;44.624;2022-08-03T10:27:08;8.7;;;5.7;;
49582;SDS011;36329;48.816;44.624;2022-08-03T10:30:13;10.1;;;6.2;;
49582;SDS011;36329;48.816;44.624;2022-08-03T10:33:16;8.1;;;5.4;;
49582;SDS011;36329;48.816;44.624;2022-08-03T10:36:20;8.5;;;5.2;;
49582;SDS011;36329;48.816;44.624;2022-08-03T10:39:25;7.8;;;4.7;;
49582;SDS011;36329;48.816;44.624;2022-08-03T10:42:29;7.4;;;4.7;;
49582;SDS011;36329;48.816;44.624;2022-08-03T10:45:31;7.4;;;4.3;;
49582;SDS011;36329;48.816;44.624;2022-08-03T10:48:36;6.7;;;4.9;;
49582;SDS011;36329;48.816;44.624;2022-08-03T10:51:38;7.2;;;4.8;;
49582;SDS011;36329;48.816;44.624;2022-08-03T10:54:40;8.1;;;5.6;;
49582;SDS011;36329;48.816;44.624;2022-08-03T10:57:43;10;;;6.3;;
49582;SDS011;36329;48.816;44.624;2022-08-03T11:00:48;8.1;;;5;;
49582;SDS011;36329;48.816;44.624;2022-08-03T11:07:22;9.9;;;5.2;;
49582;SDS011;36329;48.816;44.624;2022-08-03T11:10:29;8;;;5.6;;
49582;SDS011;36329;48.816;44.624;2022-08-03T11:13:32;7.1;;;5.3;;
49582;SDS011;36329;48.816;44.624;2022-08-03T11:16:35;6.4;;;3.9;;
49582;SDS011;36329;48.816;44.624;2022-08-03T11:19:42;7.8;;;4.3;;
49582;SDS011;36329;48.816;44.624;2022-08-03T11:22:47;5.7;;;3.9;;
49582;SDS011;36329;48.816;44.624;2022-08-03T11:36:02;6;;;3.8;;
49582;SDS011;36329;48.816;44.624;2022-08-03T11:45:48;8.6;;;4.3;;
49582;SDS011;36329;48.816;44.624;2022-08-03T11:49:02;6.5;;;4.1;;
49582;SDS011;36329;48.816;44.624;2022-08-03T11:52:10;5.1;;;4.1;;
49582;SDS011;36329;48.816;44.624;2022-08-03T11:55:13;9.7;;;4.6;;
49582;SDS011;36329;48.816;44.624;2022-08-03T11:58:17;5.5;;;4.2;;
49582;SDS011;36329;48.816;44.624;2022-08-03T12:01:24;9.6;;;4.4;;
49582;SDS011;36329;48.816;44.624;2022-08-03T12:04:26;8.1;;;4.1;;
49582;SDS011;36329;48.816;44.624;2022-08-03T12:07:28;8.2;;;4.1;;
49582;SDS011;36329;48.816;44.624;2022-08-03T12:10:30;6.1;;;4;;
49582;SDS011;36329;48.816;44.624;2022-08-03T12:13:36;7.4;;;3.8;;
49582;SDS011;36329;48.816;44.624;2022-08-03T12:16:40;6.5;;;3.8;;
49582;SDS011;36329;48.816;44.624;2022-08-03T12:19:47;9.8;;;4.6;;
49582;SDS011;36329;48.816;44.624;2022-08-03T12:22:49;11.7;;;4.7;;
49582;SDS011;36329;48.816;44.624;2022-08-03T12:25:50;8.1;;;5.1;;
49582;SDS011;36329;48.816;44.624;2022-08-03T12:28:52;8.8;;;4.8;;
49582;SDS011;36329;48.816;44.624;2022-08-03T12:31:53;8.4;;;4.6;;
49582;SDS011;36329;48.816;44.624;2022-08-03T12:34:56;10.1;;;4.6;;
49582;SDS011;36329;48.816;44.624;2022-08-03T12:38:06;11.1;;;5.1;;
49582;SDS011;36329;48.816;44.624;2022-08-03T12:41:08;6.7;;;4.8;;
49582;SDS011;36329;48.816;44.624;2022-08-03T12:44:11;7.3;;;5.2;;
49582;SDS011;36329;48.816;44.624;2022-08-03T12:47:13;10.1;;;5.4;;
49582;SDS011;36329;48.816;44.624;2022-08-03T12:50:22;10.3;;;5.2;;
49582;SDS011;36329;48.816;44.624;2022-08-03T12:53:27;13.5;;;5.2;;
49582;SDS011;36329;48.816;44.624;2022-08-03T12:56:29;11.1;;;5.6;;
49582;SDS011;36329;48.816;44.624;2022-08-03T12:59:36;9.1;;;5.2;;
49582;SDS011;36329;48.816;44.624;2022-08-03T13:02:39;10.5;;;5.6;;
49582;SDS011;36329;48.816;44.624;2022-08-03T13:05:41;9.7;;;5.1;;
49582;SDS011;36329;48.816;44.624;2022-08-03T13:08:43;11.7;;;5.2;;
49582;SDS011;36329;48.816;44.624;2022-08-03T13:11:45;10.5;;;5.4;;
49582;SDS011;36329;48.816;44.624;2022-08-03T13:14:48;7.9;;;5;;
49582;SDS011;36329;48.816;44.624;2022-08-03T13:17:51;9.9;;;4.8;;
49582;SDS011;36329;48.816;44.624;2022-08-03T13:20:53;9.1;;;5.1;;
49582;SDS011;36329;48.816;44.624;2022-08-03T13:23:54;10;;;5.2;;
49582;SDS011;36329;48.816;44.624;2022-08-03T13:26:56;10.6;;;5.3;;
49582;SDS011;36329;48.816;44.624;2022-08-03T13:30:03;9;;;5.2;;
49582;SDS011;36329;48.816;44.624;2022-08-03T13:33:05;8.9;;;5.3;;
49582;SDS011;36329;48.816;44.624;2022-08-03T13:36:08;10;;;5.1;;
49582;SDS011;36329;48.816;44.624;2022-08-03T13:39:10;9;;;5.1;;
49582;SDS011;36329;48.816;44.624;2022-08-03T13:42:11;9.5;;;5.5;;
49582;SDS011;36329;48.816;44.624;2022-08-03T13:45:13;10.1;;;5.5;;
49582;SDS011;36329;48.816;44.624;2022-08-03T13:48:21;10.2;;;5.2;;
49582;SDS011;36329;48.816;44.624;2022-08-03T13:51:23;11.2;;;5.5;;
49582;SDS011;36329;48.816;44.624;2022-08-03T13:54:24;10.4;;;5.2;;
49582;SDS011;36329;48.816;44.624;2022-08-03T13:57:26;11.6;;;5.6;;
49582;SDS011;36329;48.816;44.624;2022-08-03T14:00:28;10.2;;;5.3;;
49582;SDS011;36329;48.816;44.624;2022-08-03T14:03:29;9.6;;;5.5;;
49582;SDS011;36329;48.816;44.624;2022-08-03T14:06:31;10.7;;;5.6;;
49582;SDS011;36329;48.816;44.624;2022-08-03T14:09:34;9.3;;;5.6;;
49582;SDS011;36329;48.816;44.624;2022-08-03T14:12:36;9.4;;;6;;
49582;SDS011;36329;48.816;44.624;2022-08-03T14:15:37;9.5;;;5.8;;
49582;SDS011;36329;48.816;44.624;2022-08-03T14:18:39;11.6;;;6.1;;
49582;SDS011;36329;48.816;44.624;2022-08-03T14:21:46;9.6;;;5.5;;
49582;SDS011;36329;48.816;44.624;2022-08-03T14:24:53;7.6;;;5.3;;
49582;SDS011;36329;48.816;44.624;2022-08-03T14:27:55;10.5;;;5.8;;
49582;SDS011;36329;48.816;44.624;2022-08-03T14:31:01;9.4;;;5.8;;
49582;SDS011;36329;48.816;44.624;2022-08-03T14:34:05;11.7;;;6.1;;
49582;SDS011;36329;48.816;44.624;2022-08-03T14:37:07;13.3;;;5.9;;
49582;SDS011;36329;48.816;44.624;2022-08-03T14:40:08;8.4;;;5.9;;
49582;SDS011;36329;48.816;44.624;2022-08-03T14:43:10;8.5;;;5.5;;
49582;SDS011;36329;48.816;44.624;2022-08-03T14:46:12;10.5;;;5.8;;
49582;SDS011;36329;48.816;44.624;2022-08-03T14:49:13;9.9;;;5.7;;
49582;SDS011;36329;48.816;44.624;2022-08-03T14:52:20;9.9;;;5.8;;
49582;SDS011;36329;48.816;44.624;2022-08-03T14:55:27;9.7;;;5.9;;
49582;SDS011;36329;48.816;44.624;2022-08-03T14:58:29;11.8;;;6.5;;
49582;SDS011;36329;48.816;44.624;2022-08-03T15:01:31;13.2;;;7.2;;
49582;SDS011;36329;48.816;44.624;2022-08-03T15:04:32;14.9;;;7.6;;
49582;SDS011;36329;48.816;44.624;2022-08-03T15:07:34;12.3;;;7.8;;
49582;SDS011;36329;48.816;44.624;2022-08-03T15:10:36;13;;;8.1;;
49582;SDS011;36329;48.816;44.624;2022-08-03T15:13:37;15.8;;;8.2;;
49582;SDS011;36329;48.816;44.624;2022-08-03T15:16:39;12.7;;;7.6;;
49582;SDS011;36329;48.816;44.624;2022-08-03T15:19:40;13.3;;;7.3;;
49582;SDS011;36329;48.816;44.624;2022-08-03T15:22:42;12.3;;;7.2;;
49582;SDS011;36329;48.816;44.624;2022-08-03T15:25:44;11.9;;;7.1;;
49582;SDS011;36329;48.816;44.624;2022-08-03T15:28:52;10.9;;;6.6;;
49582;SDS011;36329;48.816;44.624;2022-08-03T15:31:53;11.8;;;6.5;;
49582;SDS011;36329;48.816;44.624;2022-08-03T15:34:55;10.4;;;6.7;;
49582;SDS011;36329;48.816;44.624;2022-08-03T15:37:57;11.7;;;7.1;;
49582;SDS011;36329;48.816;44.624;2022-08-03T15:40:58;11.8;;;7.1;;
49582;SDS011;36329;48.816;44.624;2022-08-03T15:44:00;11.9;;;7.5;;
49582;SDS011;36329;48.816;44.624;2022-08-03T15:47:02;11.2;;;7.5;;
49582;SDS011;36329;48.816;44.624;2022-08-03T15:50:03;15;;;7.8;;
49582;SDS011;36329;48.816;44.624;2022-08-03T15:53:05;16.5;;;8.2;;
49582;SDS011;36329;48.816;44.624;2022-08-03T15:56:12;12.6;;;8.1;;
49582;SDS011;36329;48.816;44.624;2022-08-03T15:59:14;15.8;;;7.6;;
49582;SDS011;36329;48.816;44.624;2022-08-03T16:02:16;14.5;;;8.6;;
49582;SDS011;36329;48.816;44.624;2022-08-03T16:05:18;12.7;;;7.4;;
49582;SDS011;36329;48.816;44.624;2022-08-03T16:08:20;14.9;;;6.9;;
49582;SDS011;36329;48.816;44.624;2022-08-03T16:11:21;10.3;;;7.1;;
49582;SDS011;36329;48.816;44.624;2022-08-03T16:14:28;18;;;10.2;;
49582;SDS011;36329;48.816;44.624;2022-08-03T16:17:32;20.2;;;10;;
49582;SDS011;36329;48.816;44.624;2022-08-03T16:20:34;13.3;;;9.2;;
49582;SDS011;36329;48.816;44.624;2022-08-03T16:23:35;16.7;;;7.9;;
49582;SDS011;36329;48.816;44.624;2022-08-03T16:26:37;12.3;;;6.3;;
49582;SDS011;36329;48.816;44.624;2022-08-03T16:29:39;11.2;;;6.6;;
49582;SDS011;36329;48.816;44.624;2022-08-03T16:32:40;9.2;;;5.3;;
49582;SDS011;36329;48.816;44.624;2022-08-03T16:35:47;14.2;;;6.5;;
49582;SDS011;36329;48.816;44.624;2022-08-03T16:38:50;9.7;;;5.4;;
49582;SDS011;36329;48.816;44.624;2022-08-03T16:41:51;8.2;;;5.5;;
49582;SDS011;36329;48.816;44.624;2022-08-03T16:44:53;7.9;;;6;;
49582;SDS011;36329;48.816;44.624;2022-08-03T16:47:54;11;;;7.8;;
49582;SDS011;36329;48.816;44.624;2022-08-03T16:50:56;15.1;;;8.6;;
49582;SDS011;36329;48.816;44.624;2022-08-03T16:53:57;14.6;;;7.3;;
49582;SDS011;36329;48.816;44.624;2022-08-03T16:56:59;12.5;;;6.7;;
49582;SDS011;36329;48.816;44.624;2022-08-03T17:00:01;16.1;;;7.1;;
49582;SDS011;36329;48.816;44.624;2022-08-03T17:03:06;14.9;;;6.7;;
49582;SDS011;36329;48.816;44.624;2022-08-03T17:06:07;13.9;;;7.2;;
49582;SDS011;36329;48.816;44.624;2022-08-03T17:09:10;14.7;;;6.9;;
49582;SDS011;36329;48.816;44.624;2022-08-03T17:12:18;12.9;;;6.3;;
49582;SDS011;36329;48.816;44.624;2022-08-03T17:15:30;17.1;;;7.2;;
49582;SDS011;36329;48.816;44.624;2022-08-03T17:18:40;16.6;;;7;;
49582;SDS011;36329;48.816;44.624;2022-08-03T17:21:50;14;;;6.7;;
49582;SDS011;36329;48.816;44.624;2022-08-03T17:24:57;15.1;;;6.8;;
49582;SDS011;36329;48.816;44.624;2022-08-03T17:28:05;10.9;;;6;;
49582;SDS011;36329;48.816;44.624;2022-08-03T17:31:07;16.2;;;6.1;;
49582;SDS011;36329;48.816;44.624;2022-08-03T17:34:11;11.6;;;6.4;;
49582;SDS011;36329;48.816;44.624;2022-08-03T17:37:13;11.7;;;6.2;;
49582;SDS011;36329;48.816;44.624;2022-08-03T17:40:15;8.7;;;5.8;;
49582;SDS011;36329;48.816;44.624;2022-08-03T17:43:18;8.9;;;5.5;;
49582;SDS011;36329;48.816;44.624;2022-08-03T17:46:26;10.3;;;5.2;;
49582;SDS011;36329;48.816;44.624;2022-08-03T17:49:34;8.3;;;5.6;;
49582;SDS011;36329;48.816;44.624;2022-08-03T17:52:39;9.5;;;5.4;;
49582;SDS011;36329;48.816;44.624;2022-08-03T17:55:46;9.4;;;6.5;;
49582;SDS011;36329;48.816;44.624;2022-08-03T17:59:08;9.8;;;5.9;;
49582;SDS011;36329;48.816;44.624;2022-08-03T18:02:20;12.4;;;5.4;;
49582;SDS011;36329;48.816;44.624;2022-08-03T18:05:30;7.9;;;5.2;;
49582;SDS011;36329;48.816;44.624;2022-08-03T18:08:48;6.8;;;5;;
49582;SDS011;36329;48.816;44.624;2022-08-03T18:11:57;6.8;;;5.1;;
49582;SDS011;36329;48.816;44.624;2022-08-03T18:15:07;7.6;;;4.9;;
49582;SDS011;36329;48.816;44.624;2022-08-03T18:18:15;7.4;;;4.6;;
49582;SDS011;36329;48.816;44.624;2022-08-03T18:21:17;6.6;;;4.6;;
49582;SDS011;36329;48.816;44.624;2022-08-03T18:24:19;6.5;;;4.7;;
49582;SDS011;36329;48.816;44.624;2022-08-03T18:27:21;7.6;;;4.4;;
49582;SDS011;36329;48.816;44.624;2022-08-03T18:30:24;6.9;;;4.3;;
49582;SDS011;36329;48.816;44.624;2022-08-03T18:33:26;8.6;;;4.6;;
49582;SDS011;36329;48.816;44.624;2022-08-03T18:36:29;8.2;;;4.7;;
49582;SDS011;36329;48.816;44.624;2022-08-03T18:39:33;6.4;;;4.5;;
49582;SDS011;36329;48.816;44.624;2022-08-03T18:42:37;6.5;;;4.7;;
49582;SDS011;36329;48.816;44.624;2022-08-03T18:45:40;7.2;;;4.9;;
49582;SDS011;36329;48.816;44.624;2022-08-03T18:48:44;5.2;;;4.1;;
49582;SDS011;36329;48.816;44.624;2022-08-03T18:51:58;6.5;;;4.1;;
49582;SDS011;36329;48.816;44.624;2022-08-03T18:55:06;6;;;4.5;;
49582;SDS011;36329;48.816;44.624;2022-08-03T18:58:12;5.5;;;4.1;;
49582;SDS011;36329;48.816;44.624;2022-08-03T19:01:21;5.8;;;4.3;;
49582;SDS011;36329;48.816;44.624;2022-08-03T19:04:32;7.5;;;4;;
49582;SDS011;36329;48.816;44.624;2022-08-03T19:07:35;4.7;;;4.1;;
49582;SDS011;36329;48.816;44.624;2022-08-03T19:10:50;5.7;;;4.3;;
49582;SDS011;36329;48.816;44.624;2022-08-03T19:13:55;5.1;;;4;;